Time;durP1;ratioP1;P1;durP2;ratioP2;P2;SDS_P1;SDS_P2;PMS_P1;PMS_P2;Temp;Humidity;BMP_temperature;BMP_pressure;BME280_temperature;BME280_humidity;BME280_pressure;Samples;Min_cycle;Max_cycle;Signal;HPM_P1;HPM_P2
2023/03/14 00:00:53;;;;;;;4.65;0.82;;;18.70;60.60;;;;;;5070447;28;20056;-63
2023/03/14 00:03:20;;;;;;;3.53;0.70;;;18.60;60.60;;;;;;5071179;28;20053;-63
2023/03/14 00:05:47;;;;;;;4.28;0.82;;;18.60;60.60;;;;;;5070821;28;20083;-63
2023/03/14 00:08:14;;;;;;;2.90;1.10;;;18.60;60.60;;;;;;5053174;28;20048;-64
2023/03/14 00:10:41;;;;;;;4.03;0.80;;;18.60;60.60;;;;;;5052984;28;20413;-63
2023/03/14 00:13:08;;;;;;;4.03;2.00;;;18.60;60.60;;;;;;5060246;28;20051;-62
2023/03/14 00:15:37;;;;;;;4.18;0.70;;;18.60;60.60;;;;;;5070569;28;20493;-63
2023/03/14 00:18:04;;;;;;;4.40;0.85;;;18.60;60.60;;;;;;5070612;28;20044;-62
2023/03/14 00:20:31;;;;;;;3.58;1.27;;;18.60;60.70;;;;;;5070128;28;20063;-64
2023/03/14 00:22:58;;;;;;;3.92;0.80;;;18.50;60.70;;;;;;5051913;28;20123;-63
2023/03/14 00:25:25;;;;;;;3.63;0.85;;;18.50;60.70;;;;;;5051128;28;20051;-62
2023/03/14 00:27:52;;;;;;;4.07;0.77;;;18.50;60.70;;;;;;5068891;28;20044;-63
2023/03/14 00:30:20;;;;;;;5.30;0.85;;;18.50;60.70;;;;;;5051884;28;20127;-62
2023/03/14 00:32:48;;;;;;;4.57;0.75;;;18.50;60.70;;;;;;5051363;28;20433;-62
2023/03/14 00:35:15;;;;;;;3.75;0.70;;;18.50;60.70;;;;;;5051634;28;20052;-63
2023/03/14 00:37:42;;;;;;;4.25;1.58;;;18.50;60.70;;;;;;5052270;28;20436;-62
2023/03/14 00:40:11;;;;;;;3.38;0.68;;;18.40;60.70;;;;;;5052730;28;20045;-62
2023/03/14 00:42:38;;;;;;;3.72;0.80;;;18.50;60.70;;;;;;5051900;28;20423;-62
2023/03/14 00:45:07;;;;;;;3.28;0.43;;;18.50;60.70;;;;;;5070219;28;20505;-63
2023/03/14 00:47:34;;;;;;;3.25;0.52;;;18.50;60.70;;;;;;5070130;28;20044;-63
2023/03/14 00:50:02;;;;;;;4.35;0.68;;;18.50;60.60;;;;;;5069827;28;20539;-62
2023/03/14 00:52:29;;;;;;;4.15;0.82;;;18.60;60.60;;;;;;5045182;28;20053;-62
2023/03/14 00:54:56;;;;;;;3.45;0.57;;;18.60;60.50;;;;;;5070171;28;20489;-62
2023/03/14 00:57:23;;;;;;;3.67;0.88;;;18.60;61.00;;;;;;5052496;28;20056;-63
2023/03/14 00:59:52;;;;;;;4.35;0.65;;;18.70;60.40;;;;;;5069965;28;20048;-63
2023/03/14 01:02:19;;;;;;;4.45;1.13;;;18.80;60.30;;;;;;5051900;28;20080;-62
2023/03/14 01:04:48;;;;;;;3.60;1.20;;;18.80;60.20;;;;;;5051497;28;20044;-62
2023/03/14 01:07:16;;;;;;;3.70;0.65;;;18.80;60.10;;;;;;5050109;28;20059;-63
2023/03/14 01:09:43;;;;;;;4.05;0.40;;;18.90;60.00;;;;;;5045944;28;20480;-63
2023/03/14 01:12:10;;;;;;;4.50;0.60;;;19.00;59.90;;;;;;5052166;28;20053;-63
2023/03/14 01:14:37;;;;;;;3.55;0.65;;;19.10;59.80;;;;;;5069285;28;20059;-63
2023/03/14 01:17:04;;;;;;;3.08;0.43;;;19.20;59.80;;;;;;5069708;28;20044;-63
2023/03/14 01:19:31;;;;;;;2.40;0.40;;;19.20;59.70;;;;;;5070352;28;20071;-64
2023/03/14 01:21:58;;;;;;;3.72;1.33;;;19.20;59.60;;;;;;5051449;28;20060;-62
2023/03/14 01:24:26;;;;;;;4.38;0.80;;;19.20;59.60;;;;;;5048139;28;20056;-62
2023/03/14 01:26:53;;;;;;;3.38;0.98;;;19.30;59.60;;;;;;5032036;28;20068;-63
2023/03/14 01:29:20;;;;;;;2.10;0.82;;;19.30;59.60;;;;;;5069025;28;20052;-61
2023/03/14 01:31:47;;;;;;;3.63;1.50;;;19.20;59.60;;;;;;5070171;28;20052;-61
2023/03/14 01:34:14;;;;;;;3.40;1.10;;;19.20;59.60;;;;;;5050932;28;20811;-61
2023/03/14 01:36:41;;;;;;;3.55;1.00;;;19.20;59.60;;;;;;5069276;28;20048;-61
2023/03/14 01:39:09;;;;;;;3.20;0.70;;;19.20;59.60;;;;;;5069936;28;20063;-62
2023/03/14 01:41:38;;;;;;;2.90;0.95;;;19.20;59.70;;;;;;5069882;28;20132;-60
2023/03/14 01:44:05;;;;;;;3.28;0.63;;;19.20;59.80;;;;;;5051636;28;20059;-61
2023/03/14 01:46:37;;;;;;;3.15;0.32;;;19.20;59.80;;;;;;5069689;28;20052;-60
2023/03/14 01:49:17;;;;;;;3.63;0.63;;;19.10;59.70;;;;;;5032041;28;20079;-61
2023/03/14 01:51:50;;;;;;;4.80;0.73;;;19.10;59.80;;;;;;5050599;28;20060;-60
2023/03/14 01:54:21;;;;;;;3.40;0.68;;;19.10;59.80;;;;;;5051585;28;20056;-61
2023/03/14 01:56:53;;;;;;;5.13;1.02;;;19.00;59.70;;;;;;5069022;28;20052;-61
2023/03/14 01:59:21;;;;;;;3.97;0.65;;;19.10;59.80;;;;;;5069638;28;20056;-61
2023/03/14 02:01:49;;;;;;;3.20;0.75;;;19.00;59.80;;;;;;5069236;28;20524;-61
2023/03/14 02:04:18;;;;;;;3.67;0.50;;;19.00;59.90;;;;;;5068669;28;20067;-61
2023/03/14 02:06:53;;;;;;;2.22;0.50;;;19.00;60.00;;;;;;5051446;28;20054;-61
2023/03/14 02:09:21;;;;;;;2.83;0.80;;;18.90;59.90;;;;;;5051398;28;20063;-62
2023/03/14 02:11:51;;;;;;;2.83;0.45;;;18.90;60.50;;;;;;5068186;28;20075;-61
2023/03/14 02:14:32;;;;;;;4.18;0.52;;;18.90;60.00;;;;;;5069544;28;20055;-63
2023/03/14 02:17:00;;;;;;;3.90;0.85;;;18.90;60.00;;;;;;5055036;28;20060;-61
2023/03/14 02:19:43;;;;;;;3.28;0.77;;;18.90;60.10;;;;;;5072907;28;20052;-62
2023/03/14 02:22:12;;;;;;;3.78;0.57;;;18.90;60.10;;;;;;5045396;28;20048;-62
2023/03/14 02:24:46;;;;;;;4.00;0.65;;;18.80;60.10;;;;;;5073012;28;20044;-60
2023/03/14 02:27:16;;;;;;;3.42;0.52;;;18.80;60.20;;;;;;5072597;28;20702;-62
2023/03/14 02:29:50;;;;;;;3.17;0.70;;;18.80;60.20;;;;;;5073056;28;20056;-62
2023/03/14 02:32:18;;;;;;;4.15;0.93;;;18.80;60.20;;;;;;5054614;28;20053;-62
2023/03/14 02:34:50;;;;;;;4.43;1.05;;;18.70;60.20;;;;;;5072827;28;20053;-61
2023/03/14 02:37:18;;;;;;;3.63;0.75;;;18.70;60.20;;;;;;5053366;28;20048;-61
2023/03/14 02:39:48;;;;;;;3.08;0.47;;;18.70;60.20;;;;;;5072730;28;20055;-61
2023/03/14 02:42:17;;;;;;;4.63;0.80;;;18.70;60.30;;;;;;5055006;28;20063;-60
2023/03/14 02:44:53;;;;;;;3.65;1.00;;;18.60;60.20;;;;;;5054367;28;20055;-61
2023/03/14 02:47:23;;;;;;;4.20;0.93;;;18.60;60.20;;;;;;5070474;28;20045;-61
2023/03/14 02:49:52;;;;;;;4.30;0.73;;;18.60;60.30;;;;;;5072010;28;20044;-61
2023/03/14 02:52:19;;;;;;;3.58;0.77;;;18.60;60.30;;;;;;5072761;28;20061;-61
2023/03/14 02:54:46;;;;;;;4.05;0.95;;;18.60;60.30;;;;;;5072257;28;20053;-60
2023/03/14 02:57:13;;;;;;;2.95;0.50;;;18.60;60.30;;;;;;5072302;28;20048;-62
2023/03/14 02:59:41;;;;;;;4.75;1.08;;;18.60;60.30;;;;;;5053939;28;20056;-61
2023/03/14 03:02:08;;;;;;;3.50;0.63;;;18.50;60.30;;;;;;5070811;28;20044;-62
2023/03/14 03:04:35;;;;;;;3.78;0.82;;;18.50;60.30;;;;;;5054393;28;20481;-61
2023/03/14 03:07:02;;;;;;;4.55;0.55;;;18.50;60.30;;;;;;5053989;28;20052;-61
2023/03/14 03:09:29;;;;;;;3.63;0.75;;;18.50;60.30;;;;;;5072348;28;20048;-61
2023/03/14 03:11:56;;;;;;;3.10;0.57;;;18.50;60.30;;;;;;5054229;28;20048;-61
2023/03/14 03:14:23;;;;;;;3.67;0.70;;;18.50;60.30;;;;;;5071327;28;20062;-61
2023/03/14 03:16:51;;;;;;;4.07;0.60;;;18.50;60.20;;;;;;5070996;28;20056;-61
2023/03/14 03:19:18;;;;;;;4.57;1.42;;;18.60;60.20;;;;;;5054172;28;20059;-62
2023/03/14 03:21:45;;;;;;;1.88;0.60;;;18.60;60.20;;;;;;5046531;28;20051;-62
2023/03/14 03:24:12;;;;;;;2.95;0.50;;;18.70;60.20;;;;;;5071831;28;20044;-61
2023/03/14 03:26:39;;;;;;;4.93;1.02;;;18.70;60.10;;;;;;5070480;28;20060;-62
2023/03/14 03:29:06;;;;;;;2.85;0.93;;;18.80;60.00;;;;;;5071640;28;20052;-62
2023/03/14 03:31:33;;;;;;;3.25;0.52;;;18.80;59.90;;;;;;5053747;28;20053;-61
2023/03/14 03:34:01;;;;;;;4.13;0.65;;;18.90;59.80;;;;;;5070525;28;20474;-61
2023/03/14 03:36:28;;;;;;;2.65;0.50;;;19.00;59.80;;;;;;5059733;28;20044;-61
2023/03/14 03:38:55;;;;;;;3.00;0.45;;;19.00;59.70;;;;;;5053465;28;20048;-61
2023/03/14 03:41:22;;;;;;;3.72;0.63;;;19.10;59.60;;;;;;5053557;28;20052;-61
2023/03/14 03:43:49;;;;;;;2.85;0.47;;;19.10;59.50;;;;;;5070941;28;20048;-62
2023/03/14 03:46:16;;;;;;;4.53;0.57;;;19.20;59.40;;;;;;5065261;28;20523;-61
2023/03/14 03:48:43;;;;;;;2.78;0.30;;;19.20;59.30;;;;;;5071351;28;20456;-62
2023/03/14 03:51:14;;;;;;;3.30;0.65;;;19.30;59.40;;;;;;5053166;28;20062;-61
2023/03/14 03:53:41;;;;;;;2.97;0.52;;;19.20;59.20;;;;;;5071247;28;20088;-61
2023/03/14 03:56:10;;;;;;;3.08;0.70;;;19.20;59.20;;;;;;5070657;28;20049;-61
2023/03/14 03:58:38;;;;;;;4.20;1.13;;;19.20;59.20;;;;;;5070881;28;20710;-61
2023/03/14 04:01:06;;;;;;;3.05;1.00;;;19.20;59.30;;;;;;5070104;28;20493;-61
2023/03/14 04:03:33;;;;;;;2.33;0.90;;;19.20;59.40;;;;;;5052918;28;20056;-62
2023/03/14 04:06:00;;;;;;;3.35;0.47;;;19.20;59.40;;;;;;5070605;28;20055;-61
2023/03/14 04:08:29;;;;;;;2.33;0.50;;;19.20;59.40;;;;;;5053172;28;20071;-63
2023/03/14 04:10:58;;;;;;;2.22;0.73;;;19.20;59.40;;;;;;5068785;28;20045;-61
2023/03/14 04:13:25;;;;;;;2.78;1.00;;;19.10;59.40;;;;;;5052682;28;20102;-62
2023/03/14 04:15:52;;;;;;;4.25;0.35;;;19.10;59.50;;;;;;5052828;28;20063;-61
2023/03/14 04:18:20;;;;;;;2.60;0.60;;;19.10;59.50;;;;;;5052875;28;20044;-61
2023/03/14 04:20:51;;;;;;;4.43;1.00;;;19.10;59.60;;;;;;5039853;28;20579;-61
2023/03/14 04:23:18;;;;;;;4.00;0.73;;;19.10;59.60;;;;;;5070940;28;20057;-61
2023/03/14 04:25:46;;;;;;;5.32;1.38;;;19.00;59.60;;;;;;5052000;28;20048;-62
2023/03/14 04:28:13;;;;;;;1.92;0.32;;;19.00;59.60;;;;;;5070933;28;20052;-61
2023/03/14 04:30:40;;;;;;;2.88;0.55;;;19.00;59.70;;;;;;5069557;28;20056;-62
2023/03/14 04:33:08;;;;;;;3.22;0.43;;;19.00;59.70;;;;;;5070672;28;20052;-61
2023/03/14 04:35:35;;;;;;;3.83;1.15;;;18.90;59.70;;;;;;5052638;28;20060;-62
2023/03/14 04:38:02;;;;;;;2.72;0.63;;;18.90;59.80;;;;;;5070258;28;20052;-61
2023/03/14 04:40:29;;;;;;;3.25;0.90;;;18.90;59.80;;;;;;5070809;28;20055;-62
2023/03/14 04:42:57;;;;;;;6.07;1.20;;;18.90;59.80;;;;;;5052262;28;20057;-61
2023/03/14 04:45:24;;;;;;;2.15;0.90;;;18.90;59.90;;;;;;5051734;28;20052;-61
2023/03/14 04:47:51;;;;;;;4.22;1.55;;;18.80;59.90;;;;;;5052160;28;20049;-62
2023/03/14 04:50:18;;;;;;;2.72;1.67;;;18.80;60.00;;;;;;5069667;28;20059;-61
2023/03/14 04:52:45;;;;;;;3.45;1.42;;;18.80;60.00;;;;;;5070090;28;20420;-62
2023/03/14 04:55:12;;;;;;;2.28;0.43;;;18.70;60.00;;;;;;5069786;28;20048;-62
2023/03/14 04:57:39;;;;;;;2.28;0.52;;;18.70;60.00;;;;;;5069935;28;20060;-61
2023/03/14 05:00:10;;;;;;;2.72;0.82;;;18.70;60.00;;;;;;5070343;28;20527;-61
2023/03/14 05:02:36;;;;;;;3.40;0.50;;;18.70;60.10;;;;;;5035353;28;20052;-61
2023/03/14 05:05:04;;;;;;;3.83;0.82;;;18.60;60.00;;;;;;5052311;28;20056;-61
2023/03/14 05:07:31;;;;;;;1.83;0.70;;;18.60;60.10;;;;;;5070009;28;20041;-61
2023/03/14 05:09:58;;;;;;;3.22;0.95;;;18.60;60.70;;;;;;5051906;28;20071;-61
2023/03/14 05:12:25;;;;;;;3.92;0.88;;;18.60;60.20;;;;;;5051764;28;20052;-61
2023/03/14 05:14:52;;;;;;;2.97;1.25;;;18.60;60.20;;;;;;5069787;28;20044;-61
2023/03/14 05:17:20;;;;;;;2.95;0.52;;;18.60;60.20;;;;;;5052246;28;20408;-61
2023/03/14 05:19:47;;;;;;;2.88;0.70;;;18.50;60.20;;;;;;5069072;28;20056;-61
2023/03/14 05:22:14;;;;;;;3.42;0.95;;;18.50;60.20;;;;;;5069663;28;20052;-61
2023/03/14 05:24:41;;;;;;;3.25;0.60;;;18.50;60.30;;;;;;5052171;28;20056;-61
2023/03/14 05:27:08;;;;;;;3.28;0.50;;;18.50;60.30;;;;;;5068915;28;20049;-61
2023/03/14 05:29:35;;;;;;;4.43;0.60;;;18.50;60.30;;;;;;5070217;28;20059;-62
2023/03/14 05:32:02;;;;;;;2.60;0.52;;;18.50;60.40;;;;;;5069226;28;20060;-61
2023/03/14 05:34:30;;;;;;;2.15;1.05;;;18.50;60.30;;;;;;5069905;28;20054;-62
2023/03/14 05:36:57;;;;;;;3.38;0.60;;;18.50;60.30;;;;;;5069597;28;20045;-62
2023/03/14 05:39:25;;;;;;;2.65;0.50;;;18.50;60.30;;;;;;5052071;28;20058;-62
2023/03/14 05:41:53;;;;;;;2.88;1.33;;;18.60;60.20;;;;;;5050818;28;20059;-61
2023/03/14 05:44:21;;;;;;;2.78;0.82;;;18.60;60.20;;;;;;5069582;28;20489;-61
2023/03/14 05:46:48;;;;;;;1.38;0.70;;;18.70;60.20;;;;;;5051403;28;20056;-61
2023/03/14 05:49:15;;;;;;;2.55;0.60;;;18.70;60.10;;;;;;5070318;28;20045;-61
2023/03/14 05:51:43;;;;;;;3.33;0.73;;;18.80;60.10;;;;;;5055320;28;20056;-61
2023/03/14 05:54:10;;;;;;;1.55;0.35;;;18.80;60.00;;;;;;5072619;28;20056;-61
2023/03/14 05:56:37;;;;;;;2.63;0.73;;;18.90;59.90;;;;;;5073722;28;20052;-61
2023/03/14 05:59:04;;;;;;;2.45;0.45;;;18.90;59.70;;;;;;5054649;28;20053;-61
2023/03/14 06:01:31;;;;;;;2.03;0.43;;;19.10;59.70;;;;;;5071230;28;20060;-61
2023/03/14 06:03:58;;;;;;;3.40;0.50;;;19.10;59.60;;;;;;5072774;28;20067;-61
2023/03/14 06:06:25;;;;;;;2.35;0.22;;;19.20;59.50;;;;;;5072824;28;20055;-61
2023/03/14 06:08:53;;;;;;;2.55;0.52;;;19.30;59.40;;;;;;5054078;28;20048;-61
2023/03/14 06:11:20;;;;;;;1.70;0.55;;;19.30;59.40;;;;;;5062940;28;20067;-61
2023/03/14 06:13:51;;;;;;;2.08;0.25;;;19.30;59.30;;;;;;5073323;28;20063;-61
2023/03/14 06:16:18;;;;;;;1.85;0.40;;;19.30;59.20;;;;;;5052100;28;20456;-61
2023/03/14 06:18:46;;;;;;;2.45;0.50;;;19.30;59.20;;;;;;5053649;28;20081;-61
2023/03/14 06:21:13;;;;;;;2.28;0.43;;;19.30;59.30;;;;;;5054913;28;20106;-63
2023/03/14 06:23:40;;;;;;;1.70;0.70;;;19.30;59.30;;;;;;5073091;28;20559;-61
2023/03/14 06:26:09;;;;;;;2.40;0.35;;;19.30;59.40;;;;;;5054849;28;20519;-61
2023/03/14 06:28:36;;;;;;;2.65;0.68;;;19.30;59.40;;;;;;5054617;28;20126;-61
2023/03/14 06:31:03;;;;;;;2.88;0.60;;;19.30;59.40;;;;;;5054711;28;20060;-61
2023/03/14 06:33:30;;;;;;;2.20;0.47;;;19.30;59.60;;;;;;5072655;28;20046;-61
2023/03/14 06:35:57;;;;;;;1.83;0.30;;;19.20;59.60;;;;;;5054719;28;20060;-61
2023/03/14 06:38:24;;;;;;;1.30;0.30;;;19.20;59.50;;;;;;5072709;28;20075;-61
2023/03/14 06:40:51;;;;;;;2.55;0.90;;;19.20;59.60;;;;;;5054332;28;20048;-61
2023/03/14 06:43:19;;;;;;;3.80;0.95;;;19.20;59.70;;;;;;5052843;28;20111;-62
2023/03/14 06:45:46;;;;;;;1.95;0.60;;;19.10;59.70;;;;;;5050847;28;20412;-61
2023/03/14 06:48:13;;;;;;;2.33;0.68;;;19.10;59.80;;;;;;5053454;28;20052;-62
2023/03/14 06:50:40;;;;;;;2.13;0.70;;;19.10;59.80;;;;;;5054769;28;20052;-62
2023/03/14 06:53:07;;;;;;;2.90;0.45;;;19.10;59.80;;;;;;5071127;28;20044;-61
2023/03/14 06:55:34;;;;;;;1.90;0.28;;;19.00;59.80;;;;;;5072403;28;20135;-62
2023/03/14 06:58:01;;;;;;;2.17;0.65;;;19.00;59.90;;;;;;5072727;28;20455;-62
2023/03/14 07:00:29;;;;;;;1.30;0.35;;;19.00;59.90;;;;;;5052341;28;20049;-63
2023/03/14 07:02:56;;;;;;;2.30;0.57;;;18.90;60.00;;;;;;5072447;28;20049;-61
2023/03/14 07:05:23;;;;;;;3.72;0.82;;;18.90;60.00;;;;;;5070860;28;20053;-62
2023/03/14 07:07:50;;;;;;;2.75;0.88;;;18.90;60.00;;;;;;5051934;28;20044;-61
2023/03/14 07:10:20;;;;;;;1.90;0.60;;;18.90;60.10;;;;;;5072554;28;20044;-61
2023/03/14 07:12:47;;;;;;;2.28;0.77;;;18.90;60.20;;;;;;5072311;28;20052;-62
2023/03/14 07:15:14;;;;;;;2.92;0.80;;;18.90;60.20;;;;;;5052177;28;20644;-61
2023/03/14 07:17:43;;;;;;;2.30;0.85;;;18.80;60.20;;;;;;5033953;28;20053;-61
2023/03/14 07:20:11;;;;;;;1.92;0.75;;;18.80;60.20;;;;;;5034428;28;20077;-61
2023/03/14 07:22:38;;;;;;;2.83;0.50;;;18.80;60.30;;;;;;5061409;28;20048;-61
2023/03/14 07:25:06;;;;;;;2.00;0.80;;;18.70;60.30;;;;;;5071508;28;20047;-61
2023/03/14 07:27:33;;;;;;;2.22;0.43;;;18.70;60.30;;;;;;5071847;28;20440;-61
2023/03/14 07:30:00;;;;;;;2.78;0.75;;;18.70;60.30;;;;;;5071967;28;20070;-61
2023/03/14 07:32:27;;;;;;;2.83;0.85;;;18.70;60.40;;;;;;5053205;28;20056;-62
2023/03/14 07:34:56;;;;;;;2.70;0.70;;;18.60;60.40;;;;;;5071663;28;20554;-62
2023/03/14 07:37:23;;;;;;;3.53;0.82;;;18.60;60.40;;;;;;5053769;28;20078;-61
2023/03/14 07:39:50;;;;;;;1.77;0.80;;;18.60;60.40;;;;;;5052292;28;20509;-62
2023/03/14 07:42:17;;;;;;;2.92;0.75;;;18.60;60.50;;;;;;5071970;28;20056;-61
2023/03/14 07:44:43;;;;;;;1.35;0.22;;;18.60;60.50;;;;;;5053427;28;20677;-61
2023/03/14 07:47:11;;;;;;;2.30;0.93;;;18.60;60.50;;;;;;5071442;28;20055;-61
2023/03/14 07:49:37;;;;;;;1.77;0.60;;;18.60;60.60;;;;;;5071661;28;20052;-61
2023/03/14 07:52:06;;;;;;;1.60;0.22;;;18.50;60.50;;;;;;5053705;28;20040;-61
2023/03/14 07:54:33;;;;;;;2.30;0.55;;;18.50;60.60;;;;;;5052862;28;20053;-61
2023/03/14 07:57:00;;;;;;;2.15;0.70;;;18.50;60.60;;;;;;5071307;28;20055;-61
2023/03/14 07:59:27;;;;;;;2.85;0.75;;;18.50;60.60;;;;;;5052589;28;20056;-60
2023/03/14 08:01:54;;;;;;;2.00;0.95;;;18.50;60.60;;;;;;5053226;28;20048;-61
2023/03/14 08:04:21;;;;;;;2.45;0.35;;;18.50;60.60;;;;;;5071055;28;20412;-60
2023/03/14 08:06:48;;;;;;;1.65;0.80;;;18.50;60.50;;;;;;5053557;28;20067;-60
2023/03/14 08:09:17;;;;;;;3.30;1.08;;;18.60;60.60;;;;;;5053271;28;20109;-60
2023/03/14 08:11:44;;;;;;;2.55;1.08;;;18.60;60.50;;;;;;5052991;28;20060;-61
2023/03/14 08:14:11;;;;;;;2.35;0.50;;;18.60;60.40;;;;;;5065713;28;20047;-60
2023/03/14 08:16:38;;;;;;;1.42;0.60;;;18.70;60.40;;;;;;5050635;28;20559;-61
2023/03/14 08:19:05;;;;;;;2.92;0.98;;;18.70;60.30;;;;;;5032826;28;20056;-61
2023/03/14 08:21:32;;;;;;;2.72;1.42;;;18.80;60.30;;;;;;5042638;28;20089;-60
2023/03/14 08:23:59;;;;;;;2.65;0.60;;;18.80;60.10;;;;;;5071150;28;20048;-61
2023/03/14 08:26:27;;;;;;;2.13;0.65;;;18.80;60.00;;;;;;5070346;28;20088;-60
2023/03/14 08:28:54;;;;;;;2.50;0.55;;;18.90;60.00;;;;;;5052459;28;20059;-61
2023/03/14 08:31:21;;;;;;;1.75;0.28;;;19.00;59.90;;;;;;5070627;28;20131;-63
2023/03/14 08:33:48;;;;;;;2.63;1.15;;;19.10;59.90;;;;;;5070192;28;20056;-62
2023/03/14 08:36:15;;;;;;;1.27;1.00;;;19.10;59.80;;;;;;5051262;28;20493;-62
2023/03/14 08:38:42;;;;;;;1.08;0.10;;;19.20;59.70;;;;;;5052898;28;20056;-62
2023/03/14 08:41:10;;;;;;;1.98;1.02;;;19.20;59.60;;;;;;5069209;28;20808;-62
2023/03/14 08:43:38;;;;;;;1.52;0.40;;;19.20;59.50;;;;;;5069992;28;20060;-62
2023/03/14 08:46:05;;;;;;;2.65;0.70;;;19.20;59.60;;;;;;5050765;28;20044;-62
2023/03/14 08:48:33;;;;;;;1.95;0.60;;;19.30;59.60;;;;;;5070024;28;20080;-62
2023/03/14 08:51:06;;;;;;;1.52;0.65;;;19.30;59.60;;;;;;5052032;28;20048;-62
2023/03/14 08:53:33;;;;;;;1.20;0.57;;;19.30;59.60;;;;;;5070326;28;20048;-62
2023/03/14 08:56:00;;;;;;;1.35;0.50;;;19.20;59.50;;;;;;5051815;28;20049;-62
2023/03/14 08:58:29;;;;;;;2.92;0.70;;;19.20;59.60;;;;;;5069748;28;20060;-62
2023/03/14 09:00:57;;;;;;;2.53;0.47;;;19.20;59.70;;;;;;5070167;28;20420;-62
2023/03/14 09:03:24;;;;;;;1.02;0.63;;;19.20;59.70;;;;;;5069414;28;20047;-61
2023/03/14 09:05:52;;;;;;;1.60;0.55;;;19.10;59.70;;;;;;5069352;28;20040;-62
2023/03/14 09:08:19;;;;;;;1.15;0.50;;;19.10;59.80;;;;;;5042754;28;20056;-62
2023/03/14 09:10:46;;;;;;;1.90;0.47;;;19.10;59.90;;;;;;5065360;28;20045;-62
2023/03/14 09:13:13;;;;;;;1.98;0.52;;;19.10;60.00;;;;;;5040018;28;20135;-63
2023/03/14 09:15:42;;;;;;;1.20;0.63;;;19.10;60.10;;;;;;5058549;28;20056;-65
2023/03/14 09:18:11;;;;;;;2.20;0.65;;;19.10;60.20;;;;;;5053407;28;20114;-66
2023/03/14 09:20:38;;;;;;;;;;;19.10;60.30;;;;;;5065313;28;20052;-65
2023/03/14 09:23:05;;;;;;;3.65;0.80;;;19.00;60.40;;;;;;5056395;28;20007;-65
2023/03/14 09:25:32;;;;;;;1.58;0.13;;;19.10;60.40;;;;;;5063995;28;20057;-65
2023/03/14 09:27:59;;;;;;;2.17;1.42;;;19.00;60.40;;;;;;5051246;28;20048;-66
2023/03/14 09:30:26;;;;;;;1.17;0.30;;;19.00;60.60;;;;;;5049598;28;20052;-65
2023/03/14 09:32:53;;;;;;;1.10;0.32;;;19.00;60.70;;;;;;5068076;28;20799;-65
2023/03/14 09:35:22;;;;;;;1.17;0.22;;;19.00;60.70;;;;;;5067360;28;20060;-65
2023/03/14 09:37:49;;;;;;;2.53;0.35;;;19.00;60.80;;;;;;5059622;28;20057;-63
2023/03/14 09:40:17;;;;;;;2.03;0.50;;;19.00;60.90;;;;;;5052241;28;20090;-65
2023/03/14 09:42:45;;;;;;;2.22;0.30;;;19.00;61.00;;;;;;5041331;28;20053;-65
2023/03/14 09:45:18;;;;;;;2.05;0.15;;;19.00;61.00;;;;;;5065493;28;20351;-64
2023/03/14 09:47:46;;;;;;;2.08;0.32;;;19.00;61.00;;;;;;5053047;28;20041;-65
2023/03/14 09:50:15;;;;;;;1.95;0.40;;;19.00;61.00;;;;;;5040787;28;20044;-65
2023/03/14 09:52:48;;;;;;;1.42;0.50;;;19.00;61.10;;;;;;5048757;28;20052;-65
2023/03/14 09:55:17;;;;;;;2.90;0.30;;;19.00;61.10;;;;;;5049191;28;20048;-66
2023/03/14 09:57:47;;;;;;;2.63;0.77;;;19.00;61.10;;;;;;5037122;28;20053;-65
2023/03/14 10:00:18;;;;;;;1.55;0.10;;;18.90;61.10;;;;;;5068016;28;20325;-65
2023/03/14 10:02:51;;;;;;;1.83;0.50;;;19.00;61.20;;;;;;5049269;28;20572;-65
2023/03/14 10:05:21;;;;;;;1.27;0.10;;;18.90;61.10;;;;;;5065268;28;20279;-65
2023/03/14 10:07:49;;;;;;;2.25;0.32;;;18.90;61.20;;;;;;5067530;28;20074;-66
2023/03/14 10:10:20;;;;;;;1.05;0.50;;;18.90;61.30;;;;;;5049174;28;20060;-66
2023/03/14 10:12:49;;;;;;;2.25;0.50;;;19.00;61.30;;;;;;5050024;28;20056;-65
2023/03/14 10:15:23;;;;;;;1.33;0.25;;;19.00;61.30;;;;;;5040284;28;20561;-66
2023/03/14 10:17:51;;;;;;;3.28;0.43;;;19.00;61.30;;;;;;5062671;28;20078;-65
2023/03/14 10:20:34;;;;;;;1.70;0.60;;;19.00;61.30;;;;;;5066896;28;20068;-63
2023/03/14 10:23:04;;;;;;;2.47;0.55;;;19.00;61.40;;;;;;5049878;28;20082;-62
2023/03/14 10:25:33;;;;;;;3.03;0.32;;;19.00;61.30;;;;;;5048150;28;20063;-63
2023/03/14 10:28:01;;;;;;;1.75;0.30;;;19.00;61.30;;;;;;5066405;28;20078;-63
2023/03/14 10:30:33;;;;;;;1.92;0.20;;;19.00;61.20;;;;;;5049230;28;20068;-63
2023/03/14 10:33:09;;;;;;;2.78;0.22;;;18.90;61.20;;;;;;5067420;28;20048;-62
2023/03/14 10:35:37;;;;;;;3.40;0.73;;;18.90;61.20;;;;;;5064852;28;20059;-63
2023/03/14 10:38:06;;;;;;;1.33;0.50;;;19.00;61.30;;;;;;5070573;28;20048;-63
2023/03/14 10:40:35;;;;;;;3.17;0.63;;;19.00;61.30;;;;;;5052315;28;20090;-62
2023/03/14 10:43:06;;;;;;;3.95;0.40;;;18.90;61.30;;;;;;5071545;28;20066;-63
2023/03/14 10:45:37;;;;;;;4.00;0.70;;;18.90;61.30;;;;;;5068654;28;20052;-63
2023/03/14 10:48:21;;;;;;;1.40;0.22;;;18.90;61.30;;;;;;5051407;28;20044;-63
2023/03/14 10:51:02;;;;;;;1.75;0.47;;;18.90;61.40;;;;;;5070368;28;20501;-62
2023/03/14 10:53:39;;;;;;;2.72;0.57;;;19.00;61.40;;;;;;5071506;28;20045;-63
2023/03/14 10:56:07;;;;;;;3.17;0.70;;;19.00;61.40;;;;;;5070434;28;20044;-63
2023/03/14 10:58:43;;;;;;;3.55;0.30;;;19.00;61.30;;;;;;5051757;28;20071;-63
2023/03/14 11:01:37;;;;;;;1.63;0.50;;;19.00;61.30;;;;;;5069883;28;20037;-63
2023/03/14 11:04:16;;;;;;;2.25;0.70;;;19.00;61.40;;;;;;5050062;28;20052;-62
2023/03/14 11:06:49;;;;;;;2.80;0.70;;;19.00;61.30;;;;;;5052540;28;20055;-62
2023/03/14 11:09:23;;;;;;;4.32;0.30;;;19.10;61.40;;;;;;5070992;28;20390;-64
2023/03/14 11:11:50;;;;;;;2.97;0.57;;;19.10;61.40;;;;;;5051866;28;20481;-62
2023/03/14 11:14:26;;;;;;;2.63;0.65;;;19.00;61.30;;;;;;5050272;28;20497;-62
2023/03/14 11:16:58;;;;;;;2.67;0.80;;;19.10;61.40;;;;;;5057534;28;20053;-62
2023/03/14 11:19:43;;;;;;;2.33;0.60;;;19.10;61.30;;;;;;5069422;28;20051;-62
2023/03/14 11:22:21;;;;;;;3.00;0.10;;;19.10;61.30;;;;;;5061515;28;20538;-62
2023/03/14 11:25:05;;;;;;;4.07;0.57;;;19.10;61.30;;;;;;5041680;28;20064;-62
2023/03/14 11:27:40;;;;;;;1.80;0.60;;;19.10;61.30;;;;;;5058716;28;20060;-62
2023/03/14 11:30:18;;;;;;;1.50;0.10;;;19.10;61.30;;;;;;5050850;28;20511;-62
2023/03/14 11:32:47;;;;;;;3.40;0.70;;;19.10;61.30;;;;;;5070249;28;20057;-62
2023/03/14 11:35:23;;;;;;;2.53;0.70;;;19.10;61.30;;;;;;5040375;28;20059;-62
2023/03/14 11:37:55;;;;;;;4.57;0.77;;;19.10;61.30;;;;;;5048392;28;20054;-65
2023/03/14 11:40:26;;;;;;;2.75;0.88;;;19.20;61.40;;;;;;5051257;28;20052;-62
2023/03/14 11:43:01;;;;;;;3.90;0.30;;;19.20;61.30;;;;;;5069411;28;20538;-62
2023/03/14 11:45:34;;;;;;;2.05;0.85;;;19.20;61.30;;;;;;5069407;28;20139;-63
2023/03/14 11:48:18;;;;;;;1.88;0.80;;;19.20;61.30;;;;;;5050649;28;20048;-62
2023/03/14 11:50:47;;;;;;;3.70;0.68;;;19.30;61.10;;;;;;5064587;28;20727;-62
2023/03/14 11:53:19;;;;;;;2.30;0.80;;;19.30;60.70;;;;;;5046405;28;20785;-63
2023/03/14 11:55:49;;;;;;;2.58;0.75;;;19.40;60.60;;;;;;5069872;28;20044;-62
2023/03/14 11:58:21;;;;;;;2.33;0.68;;;19.40;60.50;;;;;;5043340;28;20056;-62
2023/03/14 12:00:52;;;;;;;1.88;0.28;;;19.40;60.30;;;;;;5063414;28;20626;-62
2023/03/14 12:03:27;;;;;;;2.67;0.47;;;19.50;60.30;;;;;;5064512;28;20056;-63
2023/03/14 12:06:03;;;;;;;2.58;0.60;;;19.60;60.30;;;;;;5069462;28;20045;-63
2023/03/14 12:08:46;;;;;;;2.17;0.43;;;19.60;60.20;;;;;;5067247;28;20063;-63
2023/03/14 12:11:34;;;;;;;2.55;0.80;;;19.70;60.10;;;;;;5051957;28;20055;-62
2023/03/14 12:14:02;;;;;;;2.22;0.30;;;19.70;60.00;;;;;;5055552;28;20047;-62
2023/03/14 12:16:36;;;;;;;2.13;0.60;;;19.80;59.90;;;;;;5059777;28;20049;-61
2023/03/14 12:19:35;;;;;;;1.77;0.25;;;19.90;59.70;;;;;;5050563;28;20509;-63
2023/03/14 12:22:30;;;;;;;1.85;0.25;;;20.00;59.60;;;;;;5022819;28;20321;-64
2023/03/14 12:25:03;;;;;;;1.98;0.55;;;20.20;59.50;;;;;;5016298;28;20053;-63
2023/03/14 12:27:59;;;;;;;2.25;0.80;;;20.20;59.20;;;;;;5068576;28;20059;-64
2023/03/14 12:30:29;;;;;;;2.50;0.68;;;20.40;59.30;;;;;;5069446;28;20147;-63
2023/03/14 12:33:30;;;;;;;2.13;0.47;;;20.40;59.10;;;;;;5065551;28;20505;-61
2023/03/14 12:36:04;;;;;;;2.75;0.55;;;20.50;58.90;;;;;;5048409;28;20044;-64
2023/03/14 12:38:44;;;;;;;2.33;0.80;;;20.50;58.90;;;;;;5048718;28;20064;-62
2023/03/14 12:41:18;;;;;;;2.55;0.20;;;20.50;58.90;;;;;;5044121;28;20452;-64
2023/03/14 12:43:47;;;;;;;2.42;0.40;;;20.50;58.90;;;;;;5050452;28;20481;-65
2023/03/14 12:46:24;;;;;;;1.58;0.30;;;20.50;59.00;;;;;;5064384;28;20055;-65
2023/03/14 12:48:55;;;;;;;2.20;0.38;;;20.50;59.10;;;;;;5046020;28;20052;-63
2023/03/14 12:51:30;;;;;;;2.15;0.70;;;20.40;59.10;;;;;;5063728;28;20074;-62
2023/03/14 12:54:33;;;;;;;2.25;0.57;;;20.40;59.20;;;;;;5047876;28;20935;-61
2023/03/14 12:57:10;;;;;;;1.80;0.25;;;20.30;59.20;;;;;;5035777;28;20432;-62
2023/03/14 12:59:42;;;;;;;3.05;0.75;;;20.30;59.30;;;;;;5065737;28;20056;-63